sensor_id;sensor_type;location;lat;lon;timestamp;temperature;humidity
18446;DHT22;9352;50.888;4.466;2022-12-24T00:00:12;11.60;99.90
18446;DHT22;9352;50.888;4.466;2022-12-24T00:02:42;11.50;99.90
18446;DHT22;9352;50.888;4.466;2022-12-24T00:05:09;11.40;99.90
18446;DHT22;9352;50.888;4.466;2022-12-24T00:07:36;11.40;99.90
18446;DHT22;9352;50.888;4.466;2022-12-24T00:10:06;11.40;99.90
18446;DHT22;9352;50.888;4.466;2022-12-24T00:12:34;11.30;99.90
18446;DHT22;9352;50.888;4.466;2022-12-24T00:15:01;11.30;99.90
18446;DHT22;9352;50.888;4.466;2022-12-24T00:17:28;11.30;99.90
18446;DHT22;9352;50.888;4.466;2022-12-24T00:19:55;11.30;99.90
18446;DHT22;9352;50.888;4.466;2022-12-24T00:22:22;11.30;99.90
18446;DHT22;9352;50.888;4.466;2022-12-24T00:24:49;11.20;99.90
18446;DHT22;9352;50.888;4.466;2022-12-24T00:27:17;11.20;99.90
18446;DHT22;9352;50.888;4.466;2022-12-24T00:29:44;11.30;99.90
18446;DHT22;9352;50.888;4.466;2022-12-24T00:32:11;11.30;99.90
18446;DHT22;9352;50.888;4.466;2022-12-24T00:34:38;11.30;99.90
18446;DHT22;9352;50.888;4.466;2022-12-24T00:37:06;11.40;99.90
18446;DHT22;9352;50.888;4.466;2022-12-24T00:39:33;11.40;99.90
18446;DHT22;9352;50.888;4.466;2022-12-24T00:41:59;11.40;99.90
18446;DHT22;9352;50.888;4.466;2022-12-24T00:44:28;11.40;99.90
18446;DHT22;9352;50.888;4.466;2022-12-24T00:46:55;11.30;99.90
18446;DHT22;9352;50.888;4.466;2022-12-24T00:49:22;11.20;99.90
18446;DHT22;9352;50.888;4.466;2022-12-24T00:51:49;11.20;99.90
18446;DHT22;9352;50.888;4.466;2022-12-24T00:54:16;11.10;99.90
18446;DHT22;9352;50.888;4.466;2022-12-24T00:56:42;11.10;99.90
18446;DHT22;9352;50.888;4.466;2022-12-24T00:59:09;11.00;99.90
18446;DHT22;9352;50.888;4.466;2022-12-24T01:01:37;11.00;99.90
18446;DHT22;9352;50.888;4.466;2022-12-24T01:04:04;11.00;99.90
18446;DHT22;9352;50.888;4.466;2022-12-24T01:06:49;11.00;99.90
18446;DHT22;9352;50.888;4.466;2022-12-24T01:09:16;11.10;99.90
18446;DHT22;9352;50.888;4.466;2022-12-24T01:11:42;11.10;99.90
18446;DHT22;9352;50.888;4.466;2022-12-24T01:14:10;11.10;99.90
18446;DHT22;9352;50.888;4.466;2022-12-24T01:16:39;11.00;99.90
18446;DHT22;9352;50.888;4.466;2022-12-24T01:19:06;11.00;99.90
18446;DHT22;9352;50.888;4.466;2022-12-24T01:21:32;11.00;99.90
18446;DHT22;9352;50.888;4.466;2022-12-24T01:23:59;11.00;99.90
18446;DHT22;9352;50.888;4.466;2022-12-24T01:26:26;10.90;99.90
18446;DHT22;9352;50.888;4.466;2022-12-24T01:28:53;10.90;99.90
18446;DHT22;9352;50.888;4.466;2022-12-24T01:31:22;10.90;99.90
18446;DHT22;9352;50.888;4.466;2022-12-24T01:33:50;10.90;99.90
18446;DHT22;9352;50.888;4.466;2022-12-24T01:36:17;10.80;99.90
18446;DHT22;9352;50.888;4.466;2022-12-24T01:38:44;10.80;99.90
18446;DHT22;9352;50.888;4.466;2022-12-24T01:41:14;10.80;99.90
18446;DHT22;9352;50.888;4.466;2022-12-24T01:44:21;10.70;99.90
18446;DHT22;9352;50.888;4.466;2022-12-24T01:46:50;10.70;99.90
18446;DHT22;9352;50.888;4.466;2022-12-24T01:49:19;10.60;99.90
18446;DHT22;9352;50.888;4.466;2022-12-24T01:51:48;10.60;99.90
18446;DHT22;9352;50.888;4.466;2022-12-24T01:54:19;10.60;99.90
18446;DHT22;9352;50.888;4.466;2022-12-24T01:56:50;10.60;99.90
18446;DHT22;9352;50.888;4.466;2022-12-24T01:59:19;10.60;99.90
18446;DHT22;9352;50.888;4.466;2022-12-24T02:01:47;10.60;99.90
18446;DHT22;9352;50.888;4.466;2022-12-24T02:04:22;10.60;99.90
18446;DHT22;9352;50.888;4.466;2022-12-24T02:06:50;10.60;99.90
18446;DHT22;9352;50.888;4.466;2022-12-24T02:09:17;10.50;99.90
18446;DHT22;9352;50.888;4.466;2022-12-24T02:11:45;10.50;99.90
18446;DHT22;9352;50.888;4.466;2022-12-24T02:14:13;10.50;99.90
18446;DHT22;9352;50.888;4.466;2022-12-24T02:16:48;10.40;99.90
18446;DHT22;9352;50.888;4.466;2022-12-24T02:22:18;10.40;99.90
18446;DHT22;9352;50.888;4.466;2022-12-24T02:25:09;10.40;99.90
18446;DHT22;9352;50.888;4.466;2022-12-24T02:27:45;10.40;99.90
18446;DHT22;9352;50.888;4.466;2022-12-24T02:30:20;10.40;99.90
18446;DHT22;9352;50.888;4.466;2022-12-24T02:33:05;10.50;99.90
18446;DHT22;9352;50.888;4.466;2022-12-24T02:35:43;10.50;99.90
18446;DHT22;9352;50.888;4.466;2022-12-24T02:38:16;10.50;99.90
18446;DHT22;9352;50.888;4.466;2022-12-24T02:40:47;10.60;99.90
18446;DHT22;9352;50.888;4.466;2022-12-24T02:43:20;10.60;99.90
18446;DHT22;9352;50.888;4.466;2022-12-24T02:45:52;10.60;99.90
18446;DHT22;9352;50.888;4.466;2022-12-24T02:48:21;10.60;99.90
18446;DHT22;9352;50.888;4.466;2022-12-24T02:50:57;10.60;99.90
18446;DHT22;9352;50.888;4.466;2022-12-24T02:53:25;10.60;99.90
18446;DHT22;9352;50.888;4.466;2022-12-24T02:56:03;10.60;99.90
18446;DHT22;9352;50.888;4.466;2022-12-24T02:58:41;10.70;99.90
18446;DHT22;9352;50.888;4.466;2022-12-24T03:01:20;10.70;99.90
18446;DHT22;9352;50.888;4.466;2022-12-24T03:03:58;10.70;99.90
18446;DHT22;9352;50.888;4.466;2022-12-24T03:06:35;10.70;99.90
18446;DHT22;9352;50.888;4.466;2022-12-24T03:09:11;10.70;99.90
18446;DHT22;9352;50.888;4.466;2022-12-24T03:11:43;10.70;99.90
18446;DHT22;9352;50.888;4.466;2022-12-24T03:14:12;10.70;99.90
18446;DHT22;9352;50.888;4.466;2022-12-24T03:16:42;10.70;99.90
18446;DHT22;9352;50.888;4.466;2022-12-24T03:19:09;10.60;99.90
18446;DHT22;9352;50.888;4.466;2022-12-24T03:21:39;10.60;99.90
18446;DHT22;9352;50.888;4.466;2022-12-24T03:24:07;10.60;99.90
18446;DHT22;9352;50.888;4.466;2022-12-24T03:26:35;10.60;99.90
18446;DHT22;9352;50.888;4.466;2022-12-24T03:29:04;10.50;99.90
18446;DHT22;9352;50.888;4.466;2022-12-24T03:31:44;10.50;99.90
18446;DHT22;9352;50.888;4.466;2022-12-24T03:34:12;10.50;99.90
18446;DHT22;9352;50.888;4.466;2022-12-24T03:36:40;10.50;99.90
18446;DHT22;9352;50.888;4.466;2022-12-24T03:39:07;10.50;99.90
18446;DHT22;9352;50.888;4.466;2022-12-24T03:41:35;10.60;99.90
18446;DHT22;9352;50.888;4.466;2022-12-24T03:44:03;10.60;99.90
18446;DHT22;9352;50.888;4.466;2022-12-24T03:46:30;10.60;99.90
18446;DHT22;9352;50.888;4.466;2022-12-24T03:48:58;10.60;99.90
18446;DHT22;9352;50.888;4.466;2022-12-24T03:51:25;10.60;99.90
18446;DHT22;9352;50.888;4.466;2022-12-24T03:53:53;10.60;99.90
18446;DHT22;9352;50.888;4.466;2022-12-24T03:56:20;10.60;99.90
18446;DHT22;9352;50.888;4.466;2022-12-24T03:58:47;10.60;99.90
18446;DHT22;9352;50.888;4.466;2022-12-24T04:01:15;10.60;99.90
18446;DHT22;9352;50.888;4.466;2022-12-24T04:03:42;10.50;99.90
18446;DHT22;9352;50.888;4.466;2022-12-24T04:06:12;10.50;99.90
18446;DHT22;9352;50.888;4.466;2022-12-24T04:08:41;10.60;99.90
18446;DHT22;9352;50.888;4.466;2022-12-24T04:11:10;10.60;99.90
18446;DHT22;9352;50.888;4.466;2022-12-24T04:13:37;10.60;99.90
18446;DHT22;9352;50.888;4.466;2022-12-24T04:16:06;10.60;99.90
18446;DHT22;9352;50.888;4.466;2022-12-24T04:18:33;10.60;99.90
18446;DHT22;9352;50.888;4.466;2022-12-24T04:21:00;10.60;99.90
18446;DHT22;9352;50.888;4.466;2022-12-24T04:23:31;10.70;99.90
18446;DHT22;9352;50.888;4.466;2022-12-24T04:25:59;10.80;99.90
18446;DHT22;9352;50.888;4.466;2022-12-24T04:28:27;10.80;99.90
18446;DHT22;9352;50.888;4.466;2022-12-24T04:30:57;10.80;99.90
18446;DHT22;9352;50.888;4.466;2022-12-24T04:33:24;10.80;99.90
18446;DHT22;9352;50.888;4.466;2022-12-24T04:35:52;10.90;99.90
18446;DHT22;9352;50.888;4.466;2022-12-24T04:38:19;10.90;99.90
18446;DHT22;9352;50.888;4.466;2022-12-24T04:40:47;10.90;99.90
18446;DHT22;9352;50.888;4.466;2022-12-24T04:43:14;10.90;99.90
18446;DHT22;9352;50.888;4.466;2022-12-24T04:45:44;10.80;99.90
18446;DHT22;9352;50.888;4.466;2022-12-24T04:48:10;10.80;99.90
18446;DHT22;9352;50.888;4.466;2022-12-24T04:50:38;10.80;99.90
18446;DHT22;9352;50.888;4.466;2022-12-24T04:53:05;10.70;99.90
18446;DHT22;9352;50.888;4.466;2022-12-24T04:55:32;10.70;99.90
18446;DHT22;9352;50.888;4.466;2022-12-24T04:58:00;10.70;99.90
18446;DHT22;9352;50.888;4.466;2022-12-24T05:00:27;10.70;99.90
18446;DHT22;9352;50.888;4.466;2022-12-24T05:02:54;10.70;99.90
18446;DHT22;9352;50.888;4.466;2022-12-24T05:05:21;10.70;99.90
18446;DHT22;9352;50.888;4.466;2022-12-24T05:07:48;10.70;99.90
18446;DHT22;9352;50.888;4.466;2022-12-24T05:10:15;10.70;99.90
18446;DHT22;9352;50.888;4.466;2022-12-24T05:12:41;10.70;99.90
18446;DHT22;9352;50.888;4.466;2022-12-24T05:15:10;10.60;99.90
18446;DHT22;9352;50.888;4.466;2022-12-24T05:17:37;10.60;99.90
18446;DHT22;9352;50.888;4.466;2022-12-24T05:20:05;10.60;99.90
18446;DHT22;9352;50.888;4.466;2022-12-24T05:22:32;10.60;99.90
18446;DHT22;9352;50.888;4.466;2022-12-24T05:25:16;10.50;99.90
18446;DHT22;9352;50.888;4.466;2022-12-24T05:28:01;10.50;99.90
18446;DHT22;9352;50.888;4.466;2022-12-24T05:30:29;10.50;99.90
18446;DHT22;9352;50.888;4.466;2022-12-24T05:32:56;10.50;99.90
18446;DHT22;9352;50.888;4.466;2022-12-24T05:35:23;10.50;99.90
18446;DHT22;9352;50.888;4.466;2022-12-24T05:37:50;10.50;99.90
18446;DHT22;9352;50.888;4.466;2022-12-24T05:40:17;10.50;99.90
18446;DHT22;9352;50.888;4.466;2022-12-24T05:42:43;10.60;99.90
18446;DHT22;9352;50.888;4.466;2022-12-24T05:45:10;10.60;99.90
18446;DHT22;9352;50.888;4.466;2022-12-24T05:47:39;10.60;99.90
18446;DHT22;9352;50.888;4.466;2022-12-24T05:50:07;10.60;99.90
18446;DHT22;9352;50.888;4.466;2022-12-24T05:52:34;10.70;99.90
18446;DHT22;9352;50.888;4.466;2022-12-24T05:55:01;10.70;99.90
18446;DHT22;9352;50.888;4.466;2022-12-24T05:57:28;10.70;99.90
18446;DHT22;9352;50.888;4.466;2022-12-24T05:59:55;10.70;99.90
18446;DHT22;9352;50.888;4.466;2022-12-24T06:02:22;10.70;99.90
18446;DHT22;9352;50.888;4.466;2022-12-24T06:04:50;10.80;99.90
18446;DHT22;9352;50.888;4.466;2022-12-24T06:07:17;10.80;99.90
18446;DHT22;9352;50.888;4.466;2022-12-24T06:09:44;10.90;99.90
18446;DHT22;9352;50.888;4.466;2022-12-24T06:12:11;10.80;99.90
18446;DHT22;9352;50.888;4.466;2022-12-24T06:14:37;10.80;99.90
18446;DHT22;9352;50.888;4.466;2022-12-24T06:17:04;10.80;99.90
18446;DHT22;9352;50.888;4.466;2022-12-24T06:19:31;10.70;99.90
18446;DHT22;9352;50.888;4.466;2022-12-24T06:22:00;10.70;99.90
18446;DHT22;9352;50.888;4.466;2022-12-24T06:24:26;10.60;99.90
18446;DHT22;9352;50.888;4.466;2022-12-24T06:26:53;10.60;99.90
18446;DHT22;9352;50.888;4.466;2022-12-24T06:29:20;10.60;99.90
18446;DHT22;9352;50.888;4.466;2022-12-24T06:31:47;10.60;99.90
18446;DHT22;9352;50.888;4.466;2022-12-24T06:34:14;10.50;99.90
18446;DHT22;9352;50.888;4.466;2022-12-24T06:36:41;10.50;99.90
18446;DHT22;9352;50.888;4.466;2022-12-24T06:39:09;10.40;99.90
18446;DHT22;9352;50.888;4.466;2022-12-24T06:41:36;10.40;99.90
18446;DHT22;9352;50.888;4.466;2022-12-24T06:44:03;10.40;99.90
18446;DHT22;9352;50.888;4.466;2022-12-24T06:46:30;10.50;99.90
18446;DHT22;9352;50.888;4.466;2022-12-24T06:48:57;10.50;99.90
18446;DHT22;9352;50.888;4.466;2022-12-24T06:51:25;10.50;99.90
18446;DHT22;9352;50.888;4.466;2022-12-24T06:53:52;10.50;99.90
18446;DHT22;9352;50.888;4.466;2022-12-24T06:56:20;10.50;99.90
18446;DHT22;9352;50.888;4.466;2022-12-24T06:58:48;10.50;99.90
18446;DHT22;9352;50.888;4.466;2022-12-24T07:01:16;10.50;99.90
18446;DHT22;9352;50.888;4.466;2022-12-24T07:03:44;10.50;99.90
18446;DHT22;9352;50.888;4.466;2022-12-24T07:06:15;10.60;99.90
18446;DHT22;9352;50.888;4.466;2022-12-24T07:08:43;10.60;99.90
18446;DHT22;9352;50.888;4.466;2022-12-24T07:11:09;10.50;99.90
18446;DHT22;9352;50.888;4.466;2022-12-24T07:13:38;10.60;99.90
18446;DHT22;9352;50.888;4.466;2022-12-24T07:16:05;10.60;99.90
18446;DHT22;9352;50.888;4.466;2022-12-24T07:18:32;10.60;99.90
18446;DHT22;9352;50.888;4.466;2022-12-24T07:20:59;10.50;99.90
18446;DHT22;9352;50.888;4.466;2022-12-24T07:23:26;10.60;99.90
18446;DHT22;9352;50.888;4.466;2022-12-24T07:25:53;10.60;99.90
18446;DHT22;9352;50.888;4.466;2022-12-24T07:28:20;10.60;99.90
18446;DHT22;9352;50.888;4.466;2022-12-24T07:30:48;10.60;99.90
18446;DHT22;9352;50.888;4.466;2022-12-24T07:33:15;10.60;99.90
18446;DHT22;9352;50.888;4.466;2022-12-24T07:35:42;10.60;99.90
18446;DHT22;9352;50.888;4.466;2022-12-24T07:38:09;10.50;99.90
18446;DHT22;9352;50.888;4.466;2022-12-24T07:40:36;10.60;99.90
18446;DHT22;9352;50.888;4.466;2022-12-24T07:43:03;10.60;99.90
18446;DHT22;9352;50.888;4.466;2022-12-24T07:45:30;10.60;99.90
18446;DHT22;9352;50.888;4.466;2022-12-24T07:47:58;10.60;99.90
18446;DHT22;9352;50.888;4.466;2022-12-24T07:50:25;10.60;99.90
18446;DHT22;9352;50.888;4.466;2022-12-24T07:52:52;10.50;99.90
18446;DHT22;9352;50.888;4.466;2022-12-24T07:55:18;10.50;99.90
18446;DHT22;9352;50.888;4.466;2022-12-24T07:57:45;10.50;99.90
18446;DHT22;9352;50.888;4.466;2022-12-24T08:00:13;10.50;99.90
18446;DHT22;9352;50.888;4.466;2022-12-24T08:02:40;10.50;99.90
18446;DHT22;9352;50.888;4.466;2022-12-24T08:05:09;10.60;99.90
18446;DHT22;9352;50.888;4.466;2022-12-24T08:07:35;10.60;99.90
18446;DHT22;9352;50.888;4.466;2022-12-24T08:10:03;10.60;99.90
18446;DHT22;9352;50.888;4.466;2022-12-24T08:12:30;10.60;99.90
18446;DHT22;9352;50.888;4.466;2022-12-24T08:14:57;10.60;99.90
18446;DHT22;9352;50.888;4.466;2022-12-24T08:17:23;10.60;99.90
18446;DHT22;9352;50.888;4.466;2022-12-24T08:19:50;10.70;99.90
18446;DHT22;9352;50.888;4.466;2022-12-24T08:22:19;10.70;99.90
18446;DHT22;9352;50.888;4.466;2022-12-24T08:24:45;10.70;99.90
18446;DHT22;9352;50.888;4.466;2022-12-24T08:27:12;10.70;99.90
18446;DHT22;9352;50.888;4.466;2022-12-24T08:29:39;10.80;99.90
18446;DHT22;9352;50.888;4.466;2022-12-24T08:32:06;10.80;99.90
18446;DHT22;9352;50.888;4.466;2022-12-24T08:34:33;10.80;99.90
18446;DHT22;9352;50.888;4.466;2022-12-24T08:37:00;10.80;99.90
18446;DHT22;9352;50.888;4.466;2022-12-24T08:39:28;10.90;99.90
18446;DHT22;9352;50.888;4.466;2022-12-24T08:41:55;10.90;99.90
18446;DHT22;9352;50.888;4.466;2022-12-24T08:44:22;11.00;99.90
18446;DHT22;9352;50.888;4.466;2022-12-24T08:46:49;11.00;99.90
18446;DHT22;9352;50.888;4.466;2022-12-24T08:49:16;11.00;99.90
18446;DHT22;9352;50.888;4.466;2022-12-24T08:51:43;11.10;99.90
18446;DHT22;9352;50.888;4.466;2022-12-24T08:54:09;11.10;99.90
18446;DHT22;9352;50.888;4.466;2022-12-24T08:56:38;11.10;99.90
18446;DHT22;9352;50.888;4.466;2022-12-24T08:59:05;11.10;99.90
18446;DHT22;9352;50.888;4.466;2022-12-24T09:01:31;11.10;99.90
18446;DHT22;9352;50.888;4.466;2022-12-24T09:04:00;11.20;99.90
18446;DHT22;9352;50.888;4.466;2022-12-24T09:06:27;11.20;99.90
18446;DHT22;9352;50.888;4.466;2022-12-24T09:08:54;11.20;99.90
18446;DHT22;9352;50.888;4.466;2022-12-24T09:11:22;11.20;99.90
18446;DHT22;9352;50.888;4.466;2022-12-24T09:13:51;11.30;99.90
18446;DHT22;9352;50.888;4.466;2022-12-24T09:16:18;11.40;99.90
18446;DHT22;9352;50.888;4.466;2022-12-24T09:18:45;11.40;99.90
18446;DHT22;9352;50.888;4.466;2022-12-24T09:21:13;11.40;99.90
18446;DHT22;9352;50.888;4.466;2022-12-24T09:23:43;11.40;99.90
18446;DHT22;9352;50.888;4.466;2022-12-24T09:26:13;11.40;99.90
18446;DHT22;9352;50.888;4.466;2022-12-24T09:28:40;11.50;99.90
18446;DHT22;9352;50.888;4.466;2022-12-24T09:31:09;11.40;99.90
18446;DHT22;9352;50.888;4.466;2022-12-24T09:33:38;11.50;99.90
18446;DHT22;9352;50.888;4.466;2022-12-24T09:36:06;11.50;99.90
18446;DHT22;9352;50.888;4.466;2022-12-24T09:38:35;11.50;99.90
18446;DHT22;9352;50.888;4.466;2022-12-24T09:41:11;11.50;99.90
18446;DHT22;9352;50.888;4.466;2022-12-24T09:43:39;11.50;99.90
18446;DHT22;9352;50.888;4.466;2022-12-24T09:46:16;11.60;99.90
18446;DHT22;9352;50.888;4.466;2022-12-24T09:48:48;11.60;99.90
18446;DHT22;9352;50.888;4.466;2022-12-24T09:51:22;11.50;99.90
18446;DHT22;9352;50.888;4.466;2022-12-24T09:53:54;11.50;99.90
18446;DHT22;9352;50.888;4.466;2022-12-24T09:56:26;11.50;99.90
18446;DHT22;9352;50.888;4.466;2022-12-24T09:58:56;11.50;99.90
18446;DHT22;9352;50.888;4.466;2022-12-24T10:01:27;11.50;99.90
18446;DHT22;9352;50.888;4.466;2022-12-24T10:04:04;11.60;99.90
18446;DHT22;9352;50.888;4.466;2022-12-24T10:06:35;11.60;99.90
18446;DHT22;9352;50.888;4.466;2022-12-24T10:09:10;11.70;99.90
18446;DHT22;9352;50.888;4.466;2022-12-24T10:11:44;11.70;99.90
18446;DHT22;9352;50.888;4.466;2022-12-24T10:14:24;11.70;99.90
18446;DHT22;9352;50.888;4.466;2022-12-24T10:17:00;11.70;99.90
18446;DHT22;9352;50.888;4.466;2022-12-24T10:19:41;11.70;99.90
18446;DHT22;9352;50.888;4.466;2022-12-24T10:22:18;11.80;99.90
18446;DHT22;9352;50.888;4.466;2022-12-24T10:24:52;11.80;99.90
18446;DHT22;9352;50.888;4.466;2022-12-24T10:27:24;11.90;99.90
18446;DHT22;9352;50.888;4.466;2022-12-24T10:29:57;11.90;99.90
18446;DHT22;9352;50.888;4.466;2022-12-24T10:32:30;12.00;99.90
18446;DHT22;9352;50.888;4.466;2022-12-24T10:34:59;12.10;99.90
18446;DHT22;9352;50.888;4.466;2022-12-24T10:37:29;12.20;99.90
18446;DHT22;9352;50.888;4.466;2022-12-24T10:39:59;12.30;99.90
18446;DHT22;9352;50.888;4.466;2022-12-24T10:42:35;12.30;99.90
18446;DHT22;9352;50.888;4.466;2022-12-24T10:45:05;12.20;99.90
18446;DHT22;9352;50.888;4.466;2022-12-24T10:47:36;12.30;99.90
18446;DHT22;9352;50.888;4.466;2022-12-24T10:50:11;12.30;99.90
18446;DHT22;9352;50.888;4.466;2022-12-24T10:52:41;12.30;99.90
18446;DHT22;9352;50.888;4.466;2022-12-24T10:55:11;12.20;99.90
18446;DHT22;9352;50.888;4.466;2022-12-24T10:57:59;12.20;99.90
18446;DHT22;9352;50.888;4.466;2022-12-24T11:00:27;12.10;99.90
18446;DHT22;9352;50.888;4.466;2022-12-24T11:03:07;12.20;99.90
18446;DHT22;9352;50.888;4.466;2022-12-24T11:05:45;12.10;99.90
18446;DHT22;9352;50.888;4.466;2022-12-24T11:08:24;12.10;99.90
18446;DHT22;9352;50.888;4.466;2022-12-24T11:10:54;12.10;99.90
18446;DHT22;9352;50.888;4.466;2022-12-24T11:13:23;12.10;99.90
18446;DHT22;9352;50.888;4.466;2022-12-24T11:15:59;12.20;99.90
18446;DHT22;9352;50.888;4.466;2022-12-24T11:18:30;12.20;99.90
18446;DHT22;9352;50.888;4.466;2022-12-24T11:20:58;12.30;99.90
18446;DHT22;9352;50.888;4.466;2022-12-24T11:23:26;12.30;99.90
18446;DHT22;9352;50.888;4.466;2022-12-24T11:25:54;12.30;99.90
18446;DHT22;9352;50.888;4.466;2022-12-24T11:28:23;12.30;99.90
18446;DHT22;9352;50.888;4.466;2022-12-24T11:31:00;12.40;99.90
18446;DHT22;9352;50.888;4.466;2022-12-24T11:33:30;12.50;99.90
18446;DHT22;9352;50.888;4.466;2022-12-24T11:36:00;12.40;99.90
18446;DHT22;9352;50.888;4.466;2022-12-24T11:38:31;12.40;99.90
18446;DHT22;9352;50.888;4.466;2022-12-24T11:41:10;12.40;99.90
18446;DHT22;9352;50.888;4.466;2022-12-24T11:43:40;12.40;99.90
18446;DHT22;9352;50.888;4.466;2022-12-24T11:46:19;12.40;99.90
18446;DHT22;9352;50.888;4.466;2022-12-24T11:49:04;12.40;99.90
18446;DHT22;9352;50.888;4.466;2022-12-24T11:51:31;12.40;99.90
18446;DHT22;9352;50.888;4.466;2022-12-24T11:54:03;12.50;99.90
18446;DHT22;9352;50.888;4.466;2022-12-24T11:56:36;12.60;99.90
18446;DHT22;9352;50.888;4.466;2022-12-24T11:59:15;12.60;99.90
18446;DHT22;9352;50.888;4.466;2022-12-24T12:01:49;12.70;99.90
18446;DHT22;9352;50.888;4.466;2022-12-24T12:04:21;12.70;99.90
18446;DHT22;9352;50.888;4.466;2022-12-24T12:06:52;12.70;99.90
18446;DHT22;9352;50.888;4.466;2022-12-24T12:09:24;12.80;99.90
18446;DHT22;9352;50.888;4.466;2022-12-24T12:11:55;13.00;99.90
18446;DHT22;9352;50.888;4.466;2022-12-24T12:14:27;13.10;99.90
18446;DHT22;9352;50.888;4.466;2022-12-24T12:16:59;13.20;99.90
18446;DHT22;9352;50.888;4.466;2022-12-24T12:19:42;13.20;99.90
18446;DHT22;9352;50.888;4.466;2022-12-24T12:22:17;13.30;99.90
18446;DHT22;9352;50.888;4.466;2022-12-24T12:24:51;13.20;99.90
18446;DHT22;9352;50.888;4.466;2022-12-24T12:27:27;13.20;99.90
18446;DHT22;9352;50.888;4.466;2022-12-24T12:29:58;13.10;99.90
18446;DHT22;9352;50.888;4.466;2022-12-24T12:32:35;13.10;99.90
18446;DHT22;9352;50.888;4.466;2022-12-24T12:35:13;13.10;99.90
18446;DHT22;9352;50.888;4.466;2022-12-24T12:37:43;13.20;99.90
18446;DHT22;9352;50.888;4.466;2022-12-24T12:40:13;13.30;99.90
18446;DHT22;9352;50.888;4.466;2022-12-24T12:42:47;13.30;99.90
18446;DHT22;9352;50.888;4.466;2022-12-24T12:45:35;13.30;99.90
18446;DHT22;9352;50.888;4.466;2022-12-24T12:48:18;13.50;99.90
18446;DHT22;9352;50.888;4.466;2022-12-24T12:50:53;13.60;99.90
18446;DHT22;9352;50.888;4.466;2022-12-24T12:53:37;13.70;99.90
18446;DHT22;9352;50.888;4.466;2022-12-24T12:56:16;13.60;99.90
18446;DHT22;9352;50.888;4.466;2022-12-24T12:58:51;13.60;99.90
18446;DHT22;9352;50.888;4.466;2022-12-24T13:01:21;13.60;99.90
18446;DHT22;9352;50.888;4.466;2022-12-24T13:07:15;13.70;99.90
18446;DHT22;9352;50.888;4.466;2022-12-24T13:10:03;13.70;99.90
18446;DHT22;9352;50.888;4.466;2022-12-24T13:12:46;13.70;99.90
18446;DHT22;9352;50.888;4.466;2022-12-24T13:15:32;13.60;99.90
18446;DHT22;9352;50.888;4.466;2022-12-24T13:20:56;13.50;99.90
18446;DHT22;9352;50.888;4.466;2022-12-24T13:23:25;13.40;99.90
18446;DHT22;9352;50.888;4.466;2022-12-24T13:25:54;13.30;99.90
18446;DHT22;9352;50.888;4.466;2022-12-24T13:28:32;13.30;99.90
18446;DHT22;9352;50.888;4.466;2022-12-24T13:31:22;13.20;99.90
18446;DHT22;9352;50.888;4.466;2022-12-24T13:33:53;13.20;99.90
18446;DHT22;9352;50.888;4.466;2022-12-24T13:36:22;13.20;99.90
18446;DHT22;9352;50.888;4.466;2022-12-24T13:38:50;13.30;99.90
18446;DHT22;9352;50.888;4.466;2022-12-24T13:44:23;13.30;99.90
18446;DHT22;9352;50.888;4.466;2022-12-24T13:47:02;13.30;99.90
18446;DHT22;9352;50.888;4.466;2022-12-24T13:49:36;13.20;99.90
18446;DHT22;9352;50.888;4.466;2022-12-24T13:52:30;13.20;99.90
18446;DHT22;9352;50.888;4.466;2022-12-24T13:55:16;13.20;99.90
18446;DHT22;9352;50.888;4.466;2022-12-24T13:57:51;13.20;99.90
18446;DHT22;9352;50.888;4.466;2022-12-24T14:00:29;13.20;99.90
18446;DHT22;9352;50.888;4.466;2022-12-24T14:03:00;13.20;99.90
18446;DHT22;9352;50.888;4.466;2022-12-24T14:05:31;13.10;99.90
18446;DHT22;9352;50.888;4.466;2022-12-24T14:08:00;13.10;99.90
18446;DHT22;9352;50.888;4.466;2022-12-24T14:10:31;13.20;99.90
18446;DHT22;9352;50.888;4.466;2022-12-24T14:13:00;13.20;99.90
18446;DHT22;9352;50.888;4.466;2022-12-24T14:16:00;13.20;99.90
18446;DHT22;9352;50.888;4.466;2022-12-24T14:18:30;13.20;99.90
18446;DHT22;9352;50.888;4.466;2022-12-24T14:21:00;13.20;99.90
18446;DHT22;9352;50.888;4.466;2022-12-24T14:23:45;13.20;99.90
18446;DHT22;9352;50.888;4.466;2022-12-24T14:26:18;13.10;99.90
18446;DHT22;9352;50.888;4.466;2022-12-24T14:28:50;13.00;99.90
18446;DHT22;9352;50.888;4.466;2022-12-24T14:31:19;13.00;99.90
18446;DHT22;9352;50.888;4.466;2022-12-24T14:33:46;12.80;99.90
18446;DHT22;9352;50.888;4.466;2022-12-24T14:36:21;12.70;99.90
18446;DHT22;9352;50.888;4.466;2022-12-24T14:38:49;12.70;99.90
18446;DHT22;9352;50.888;4.466;2022-12-24T14:41:30;12.70;99.90
18446;DHT22;9352;50.888;4.466;2022-12-24T14:44:05;12.60;99.90
18446;DHT22;9352;50.888;4.466;2022-12-24T14:46:39;12.70;99.90
18446;DHT22;9352;50.888;4.466;2022-12-24T14:49:18;12.60;99.90
18446;DHT22;9352;50.888;4.466;2022-12-24T14:51:56;12.50;99.90
18446;DHT22;9352;50.888;4.466;2022-12-24T14:54:34;12.50;99.90
18446;DHT22;9352;50.888;4.466;2022-12-24T14:57:22;12.50;99.90
18446;DHT22;9352;50.888;4.466;2022-12-24T14:59:51;12.50;99.90
18446;DHT22;9352;50.888;4.466;2022-12-24T15:02:33;12.50;99.90
18446;DHT22;9352;50.888;4.466;2022-12-24T15:05:04;12.50;99.90
18446;DHT22;9352;50.888;4.466;2022-12-24T15:07:33;12.40;99.90
18446;DHT22;9352;50.888;4.466;2022-12-24T15:10:02;12.30;99.90
18446;DHT22;9352;50.888;4.466;2022-12-24T15:12:31;12.30;99.90
18446;DHT22;9352;50.888;4.466;2022-12-24T15:14:59;12.20;99.90
18446;DHT22;9352;50.888;4.466;2022-12-24T15:17:26;12.20;99.90
18446;DHT22;9352;50.888;4.466;2022-12-24T15:19:53;12.20;99.90
18446;DHT22;9352;50.888;4.466;2022-12-24T15:22:24;12.20;99.90
18446;DHT22;9352;50.888;4.466;2022-12-24T15:24:51;12.10;99.90
18446;DHT22;9352;50.888;4.466;2022-12-24T15:27:20;12.10;99.90
18446;DHT22;9352;50.888;4.466;2022-12-24T15:29:51;12.10;99.90
18446;DHT22;9352;50.888;4.466;2022-12-24T15:32:19;12.00;99.90
18446;DHT22;9352;50.888;4.466;2022-12-24T15:34:48;12.00;99.90
18446;DHT22;9352;50.888;4.466;2022-12-24T15:37:18;12.00;99.90
18446;DHT22;9352;50.888;4.466;2022-12-24T15:39:52;11.90;99.90
18446;DHT22;9352;50.888;4.466;2022-12-24T15:42:20;11.90;99.90
18446;DHT22;9352;50.888;4.466;2022-12-24T15:44:56;11.90;99.90
18446;DHT22;9352;50.888;4.466;2022-12-24T15:47:27;11.90;99.90
18446;DHT22;9352;50.888;4.466;2022-12-24T15:49:54;12.00;99.90
18446;DHT22;9352;50.888;4.466;2022-12-24T15:52:24;11.90;99.90
18446;DHT22;9352;50.888;4.466;2022-12-24T15:54:51;12.00;99.90
18446;DHT22;9352;50.888;4.466;2022-12-24T15:57:23;12.00;99.90
18446;DHT22;9352;50.888;4.466;2022-12-24T15:59:53;12.00;99.90
18446;DHT22;9352;50.888;4.466;2022-12-24T16:02:39;12.00;99.90
18446;DHT22;9352;50.888;4.466;2022-12-24T16:05:34;12.10;99.90
18446;DHT22;9352;50.888;4.466;2022-12-24T16:10:47;12.00;99.90
18446;DHT22;9352;50.888;4.466;2022-12-24T16:13:17;12.00;99.90
18446;DHT22;9352;50.888;4.466;2022-12-24T16:15:50;12.00;99.90
18446;DHT22;9352;50.888;4.466;2022-12-24T16:18:22;11.90;99.90
18446;DHT22;9352;50.888;4.466;2022-12-24T16:20:51;11.90;99.90